createdAt,value
2018-11-25T00:00:22.061Z,926.28
2018-11-25T00:01:22.014Z,926.24
2018-11-25T00:02:21.968Z,926.23
2018-11-25T00:03:21.923Z,926.20
2018-11-25T00:04:21.875Z,926.14
2018-11-25T00:05:21.830Z,926.14
2018-11-25T00:06:21.783Z,926.16
2018-11-25T00:07:21.738Z,926.23
2018-11-25T00:08:21.691Z,926.24
2018-11-25T00:09:21.644Z,926.26
2018-11-25T00:10:21.598Z,926.23
2018-11-25T00:11:21.552Z,926.28
2018-11-25T00:12:21.506Z,926.26
2018-11-25T00:13:21.462Z,926.27
2018-11-25T00:14:21.414Z,926.25
2018-11-25T00:15:21.367Z,926.27
2018-11-25T00:16:21.321Z,926.24
2018-11-25T00:17:21.275Z,926.17
2018-11-25T00:18:21.229Z,926.18
2018-11-25T00:19:21.183Z,926.18
2018-11-25T00:20:21.137Z,926.18
2018-11-25T00:21:21.143Z,926.12
2018-11-25T00:22:21.047Z,926.09
2018-11-25T00:23:21.001Z,926.05
2018-11-25T00:24:20.952Z,926.07
2018-11-25T00:25:20.905Z,926.09
2018-11-25T00:26:20.917Z,926.14
2018-11-25T00:27:20.813Z,926.22
2018-11-25T00:28:20.776Z,926.28
2018-11-25T00:29:20.720Z,926.35
2018-11-25T00:30:20.674Z,926.36
2018-11-25T00:31:20.628Z,926.39
2018-11-25T00:32:20.582Z,926.44
2018-11-25T00:33:20.536Z,926.47
2018-11-25T00:34:20.490Z,926.53
2018-11-25T00:35:20.444Z,926.52
2018-11-25T00:36:20.399Z,926.50
2018-11-25T00:37:20.350Z,926.55
2018-11-25T00:38:20.304Z,926.59
2018-11-25T00:39:20.258Z,926.54
2018-11-25T00:40:20.216Z,926.50
2018-11-25T00:41:20.167Z,926.51
2018-11-25T00:42:20.120Z,926.50
2018-11-25T00:43:20.076Z,926.45
2018-11-25T00:44:20.027Z,926.46
2018-11-25T00:45:19.980Z,926.41
2018-11-25T00:46:19.934Z,926.42
2018-11-25T00:47:19.889Z,926.49
2018-11-25T00:48:19.842Z,926.54
2018-11-25T00:49:19.804Z,926.46
2018-11-25T00:50:19.750Z,926.41
2018-11-25T00:51:19.705Z,926.43
2018-11-25T00:52:19.658Z,926.53
2018-11-25T00:53:19.611Z,926.63
2018-11-25T00:54:19.569Z,926.60
2018-11-25T00:55:19.520Z,926.63
2018-11-25T00:56:19.472Z,926.65
2018-11-25T00:57:19.426Z,926.62
2018-11-25T00:58:19.379Z,926.61
2018-11-25T00:59:19.336Z,926.68
2018-11-25T01:00:19.291Z,926.72
2018-11-25T01:01:19.241Z,926.75
2018-11-25T01:02:19.195Z,926.75
2018-11-25T01:03:19.148Z,926.73
2018-11-25T01:04:19.105Z,926.80
2018-11-25T01:05:19.130Z,926.82
2018-11-25T01:06:19.010Z,926.87
2018-11-25T01:07:18.964Z,926.97
2018-11-25T01:08:18.919Z,926.93
2018-11-25T01:09:18.872Z,926.95
2018-11-25T01:10:18.826Z,927.08
2018-11-25T01:11:18.779Z,927.09
2018-11-25T01:12:18.733Z,927.03
2018-11-25T01:13:18.686Z,927.02
2018-11-25T01:14:18.640Z,927.05
2018-11-25T01:15:18.597Z,927.04
2018-11-25T01:16:18.550Z,927.08
2018-11-25T01:17:18.501Z,927.06
2018-11-25T01:18:18.458Z,927.02
2018-11-25T01:19:18.410Z,927.08
2018-11-25T01:20:18.362Z,927.07
2018-11-25T01:21:18.317Z,927.01
2018-11-25T01:22:18.270Z,927.01
2018-11-25T01:23:18.227Z,927.01
2018-11-25T01:24:18.178Z,927.01
2018-11-25T01:25:18.136Z,927.02
2018-11-25T01:26:18.087Z,927.04
2018-11-25T01:27:18.040Z,927.08
2018-11-25T01:28:17.994Z,927.11
2018-11-25T01:29:17.948Z,927.07
2018-11-25T01:30:17.904Z,927.10
2018-11-25T01:31:17.855Z,927.13
2018-11-25T01:32:17.812Z,927.17
2018-11-25T01:33:17.763Z,927.24
2018-11-25T01:34:17.717Z,927.24
2018-11-25T01:35:17.674Z,927.22
2018-11-25T01:36:17.626Z,927.19
2018-11-25T01:37:17.580Z,927.20
2018-11-25T01:38:17.533Z,927.19
2018-11-25T01:39:17.490Z,927.22
2018-11-25T01:40:17.441Z,927.17
2018-11-25T01:41:17.396Z,927.20
2018-11-25T01:42:17.353Z,927.23
2018-11-25T01:43:17.304Z,927.25
2018-11-25T01:44:17.256Z,927.28
2018-11-25T01:45:17.219Z,927.31
2018-11-25T01:46:17.165Z,927.30
2018-11-25T01:47:17.118Z,927.30
2018-11-25T01:48:17.072Z,927.34
2018-11-25T01:49:17.039Z,927.33
2018-11-25T01:50:16.997Z,927.33
2018-11-25T01:51:16.934Z,927.32
2018-11-25T01:52:16.888Z,927.30
2018-11-25T01:53:16.842Z,927.34
2018-11-25T01:54:16.796Z,927.33
2018-11-25T01:55:16.751Z,927.30
2018-11-25T01:56:16.704Z,927.28
2018-11-25T01:57:16.658Z,927.31
2018-11-25T01:58:16.613Z,927.26
2018-11-25T01:59:16.565Z,927.30
2018-11-25T02:00:16.523Z,927.23
2018-11-25T02:01:16.481Z,927.23
2018-11-25T02:02:16.428Z,927.23
2018-11-25T02:03:16.382Z,927.23
2018-11-25T02:04:16.336Z,927.30
2018-11-25T02:05:16.288Z,927.22
2018-11-25T02:06:16.243Z,927.23
2018-11-25T02:07:16.196Z,927.23
2018-11-25T02:08:16.150Z,927.20
2018-11-25T02:09:16.104Z,927.19
2018-11-25T02:10:16.058Z,927.14
2018-11-25T02:11:16.013Z,927.13
2018-11-25T02:12:15.966Z,927.18
2018-11-25T02:13:15.919Z,927.13
2018-11-25T02:14:15.873Z,927.11
2018-11-25T02:15:15.827Z,927.11
2018-11-25T02:16:15.790Z,927.08
2018-11-25T02:17:15.734Z,927.11
2018-11-25T02:18:15.688Z,927.05
2018-11-25T02:19:15.642Z,927.06
2018-11-25T02:20:15.596Z,927.07
2018-11-25T02:21:15.550Z,927.06
2018-11-25T02:22:15.504Z,927.03
2018-11-25T02:23:15.459Z,927.01
2018-11-25T02:24:15.412Z,927.01
2018-11-25T02:25:15.364Z,926.95
2018-11-25T02:26:15.318Z,927.06
2018-11-25T02:27:15.272Z,927.02
2018-11-25T02:28:15.226Z,927.04
2018-11-25T02:29:15.182Z,927.05
2018-11-25T02:30:15.133Z,927.01
2018-11-25T02:31:15.087Z,927.05
2018-11-25T02:32:15.041Z,927.05
2018-11-25T02:33:14.995Z,927.02
2018-11-25T02:34:14.954Z,927.04
2018-11-25T02:35:14.902Z,927.05
2018-11-25T02:36:14.857Z,927.04
2018-11-25T02:37:14.814Z,926.99
2018-11-25T02:38:14.777Z,926.98
2018-11-25T02:39:14.720Z,926.95
2018-11-25T02:40:14.673Z,926.95
2018-11-25T02:41:14.625Z,926.93
2018-11-25T02:42:14.583Z,926.94
2018-11-25T02:43:14.534Z,926.94
2018-11-25T02:44:14.488Z,926.90
2018-11-25T02:45:14.441Z,926.91
2018-11-25T02:46:14.394Z,926.90
2018-11-25T02:47:14.348Z,926.89
2018-11-25T02:48:14.301Z,926.91
2018-11-25T02:49:14.256Z,926.92
2018-11-25T02:50:14.210Z,926.90
2018-11-25T02:51:14.163Z,926.87
2018-11-25T02:52:14.117Z,926.88
2018-11-25T02:53:14.070Z,926.88
2018-11-25T02:54:14.026Z,926.85
2018-11-25T02:55:13.978Z,926.89
2018-11-25T02:56:13.932Z,926.88
2018-11-25T02:57:13.885Z,926.95
2018-11-25T02:58:13.842Z,926.93
2018-11-25T02:59:13.796Z,927.00
2018-11-25T03:00:13.746Z,927.00
2018-11-25T03:01:13.702Z,927.10
2018-11-25T03:02:13.654Z,927.07
2018-11-25T03:03:13.608Z,927.06
2018-11-25T03:04:13.563Z,927.06
2018-11-25T03:05:13.717Z,926.99
2018-11-25T03:06:13.472Z,926.93
2018-11-25T03:07:13.429Z,926.92
2018-11-25T03:08:13.377Z,926.86
2018-11-25T03:09:13.332Z,926.88
2018-11-25T03:10:13.285Z,926.88
2018-11-25T03:11:13.239Z,926.88
2018-11-25T03:12:13.193Z,926.87
2018-11-25T03:13:13.156Z,926.89
2018-11-25T03:14:13.101Z,926.91
2018-11-25T03:15:13.062Z,926.94
2018-11-25T03:16:13.008Z,926.96
2018-11-25T03:17:12.962Z,926.95
2018-11-25T03:18:12.917Z,926.96
2018-11-25T03:19:12.870Z,926.95
2018-11-25T03:20:12.828Z,926.91
2018-11-25T03:21:12.778Z,926.88
2018-11-25T03:22:12.732Z,926.84
2018-11-25T03:23:12.686Z,926.85
2018-11-25T03:24:12.642Z,926.87
2018-11-25T03:25:12.594Z,926.89
2018-11-25T03:26:12.550Z,926.91
2018-11-25T03:27:12.502Z,926.91
2018-11-25T03:28:12.456Z,926.92
2018-11-25T03:29:12.409Z,926.94
2018-11-25T03:30:12.366Z,926.89
2018-11-25T03:31:12.317Z,926.87
2018-11-25T03:32:12.271Z,926.86
2018-11-25T03:33:12.225Z,926.86
2018-11-25T03:34:12.180Z,926.88
2018-11-25T03:35:12.133Z,926.84
2018-11-25T03:36:12.087Z,926.79
2018-11-25T03:37:12.040Z,926.81
2018-11-25T03:38:11.994Z,926.82
2018-11-25T03:39:11.948Z,926.82
2018-11-25T03:40:11.902Z,926.70
2018-11-25T03:41:11.858Z,926.68
2018-11-25T03:42:11.811Z,926.60
2018-11-25T03:43:11.764Z,926.55
2018-11-25T03:44:11.719Z,926.54
2018-11-25T03:45:11.672Z,926.49
2018-11-25T03:46:11.625Z,926.42
2018-11-25T03:47:11.579Z,926.35
2018-11-25T03:48:11.536Z,926.38
2018-11-25T03:49:11.490Z,926.43
2018-11-25T03:50:11.440Z,926.50
2018-11-25T03:51:11.399Z,926.52
2018-11-25T03:52:11.348Z,926.57
2018-11-25T03:53:11.301Z,926.66
2018-11-25T03:54:11.255Z,926.69
2018-11-25T03:55:11.209Z,926.68
2018-11-25T03:56:11.163Z,926.70
2018-11-25T03:57:11.116Z,926.66
2018-11-25T03:58:11.070Z,926.66
2018-11-25T03:59:11.025Z,926.65
2018-11-25T04:00:10.978Z,926.59
2018-11-25T04:01:10.932Z,926.55
2018-11-25T04:02:10.889Z,926.50
2018-11-25T04:03:10.840Z,926.48
2018-11-25T04:04:10.793Z,926.53
2018-11-25T04:05:10.750Z,926.56
2018-11-25T04:06:10.701Z,926.59
2018-11-25T04:07:10.655Z,926.59
2018-11-25T04:08:10.608Z,926.63
2018-11-25T04:09:10.562Z,926.60
2018-11-25T04:10:10.517Z,926.55
2018-11-25T04:11:10.470Z,926.54
2018-11-25T04:12:10.424Z,926.56
2018-11-25T04:13:10.378Z,926.49
2018-11-25T04:14:10.331Z,926.54
2018-11-25T04:15:10.286Z,926.52
2018-11-25T04:16:10.279Z,926.58
2018-11-25T04:17:10.194Z,926.61
2018-11-25T04:18:10.147Z,926.62
2018-11-25T04:19:10.104Z,926.63
2018-11-25T04:20:10.055Z,926.60
2018-11-25T04:21:10.009Z,926.59
2018-11-25T04:22:09.962Z,926.58
2018-11-25T04:23:09.916Z,926.57
2018-11-25T04:24:09.870Z,926.55
2018-11-25T04:25:09.824Z,926.59
2018-11-25T04:26:09.778Z,926.53
2018-11-25T04:27:09.732Z,926.57
2018-11-25T04:28:09.686Z,926.56
2018-11-25T04:29:09.640Z,926.53
2018-11-25T04:30:09.594Z,926.55
2018-11-25T04:31:09.548Z,926.59
2018-11-25T04:32:09.503Z,926.58
2018-11-25T04:33:09.456Z,926.55
2018-11-25T04:34:09.409Z,926.51
2018-11-25T04:35:13.672Z,926.52
2018-11-25T04:36:09.320Z,926.45
2018-11-25T04:37:09.272Z,926.44
2018-11-25T04:38:09.225Z,926.47
2018-11-25T04:39:09.181Z,926.50
2018-11-25T04:40:09.133Z,926.56
2018-11-25T04:41:09.087Z,926.57
2018-11-25T04:42:09.046Z,926.57
2018-11-25T04:43:08.998Z,926.58
2018-11-25T04:44:08.949Z,926.54
2018-11-25T04:45:08.904Z,926.59
2018-11-25T04:46:08.856Z,926.59
2018-11-25T04:47:08.810Z,926.55
2018-11-25T04:48:08.790Z,926.55
2018-11-25T04:49:08.720Z,926.59
2018-11-25T04:50:08.673Z,926.55
2018-11-25T04:51:08.626Z,926.55
2018-11-25T04:52:08.580Z,926.55
2018-11-25T04:53:08.533Z,926.56
2018-11-25T04:54:08.488Z,926.58
2018-11-25T04:55:08.441Z,926.58
2018-11-25T04:56:08.395Z,926.63
2018-11-25T04:57:08.349Z,926.62
2018-11-25T04:58:08.303Z,926.64
2018-11-25T04:59:08.261Z,926.66
2018-11-25T05:00:08.220Z,926.66
2018-11-25T05:01:08.166Z,926.73
2018-11-25T05:02:08.122Z,926.77
2018-11-25T05:03:08.073Z,926.74
2018-11-25T05:04:08.027Z,926.76
2018-11-25T05:05:07.981Z,926.76
2018-11-25T05:06:07.935Z,926.74
2018-11-25T05:07:07.889Z,926.79
2018-11-25T05:08:07.843Z,926.77
2018-11-25T05:09:07.797Z,926.76
2018-11-25T05:10:07.751Z,926.69
2018-11-25T05:11:07.708Z,926.71
2018-11-25T05:12:07.659Z,926.64
2018-11-25T05:13:07.613Z,926.74
2018-11-25T05:14:07.567Z,926.78
2018-11-25T05:15:07.522Z,926.79
2018-11-25T05:16:07.476Z,926.78
2018-11-25T05:17:07.429Z,926.83
2018-11-25T05:18:07.384Z,926.78
2018-11-25T05:19:07.337Z,926.81
2018-11-25T05:20:07.291Z,926.78
2018-11-25T05:21:07.246Z,926.78
2018-11-25T05:22:07.200Z,926.76
2018-11-25T05:23:07.157Z,926.78
2018-11-25T05:24:07.106Z,926.80
2018-11-25T05:25:07.061Z,926.81
2018-11-25T05:26:07.015Z,926.81
2018-11-25T05:27:06.969Z,926.85
2018-11-25T05:28:06.923Z,926.85
2018-11-25T05:29:06.877Z,926.79
2018-11-25T05:30:06.831Z,926.84
2018-11-25T05:31:06.785Z,926.86
2018-11-25T05:32:06.740Z,926.80
2018-11-25T05:33:06.693Z,926.79
2018-11-25T05:34:06.646Z,926.79
2018-11-25T05:35:06.600Z,926.76
2018-11-25T05:36:06.555Z,926.71
2018-11-25T05:37:06.509Z,926.78
2018-11-25T05:38:06.471Z,926.72
2018-11-25T05:39:06.417Z,926.72
2018-11-25T05:40:06.371Z,926.74
2018-11-25T05:41:06.325Z,926.68
2018-11-25T05:42:06.279Z,926.70
2018-11-25T05:43:06.286Z,926.72
2018-11-25T05:44:06.186Z,926.75
2018-11-25T05:45:06.185Z,926.68
2018-11-25T05:46:06.094Z,926.72
2018-11-25T05:47:06.048Z,926.71
2018-11-25T05:48:06.009Z,926.73
2018-11-25T05:49:05.957Z,926.83
2018-11-25T05:50:05.910Z,926.90
2018-11-25T05:51:05.864Z,926.89
2018-11-25T05:52:05.818Z,926.92
2018-11-25T05:53:05.777Z,926.99
2018-11-25T05:54:05.726Z,926.99
2018-11-25T05:55:05.680Z,926.98
2018-11-25T05:56:05.634Z,926.98
2018-11-25T05:57:05.589Z,926.97
2018-11-25T05:58:05.541Z,926.97
2018-11-25T05:59:05.498Z,926.92
2018-11-25T06:00:05.450Z,926.87
2018-11-25T06:01:05.406Z,926.92
2018-11-25T06:02:05.359Z,926.83
2018-11-25T06:03:05.311Z,926.79
2018-11-25T06:04:05.265Z,926.80
2018-11-25T06:05:05.224Z,926.81
2018-11-25T06:06:05.173Z,926.82
2018-11-25T06:07:05.127Z,926.79
2018-11-25T06:08:05.081Z,926.83
2018-11-25T06:09:05.040Z,926.84
2018-11-25T06:10:05.194Z,926.83
2018-11-25T06:11:04.942Z,926.86
2018-11-25T06:12:04.897Z,926.84
2018-11-25T06:13:04.851Z,926.83
2018-11-25T06:14:04.806Z,926.88
2018-11-25T06:15:04.758Z,926.86
2018-11-25T06:16:04.715Z,926.85
2018-11-25T06:17:04.666Z,926.85
2018-11-25T06:18:04.621Z,926.84
2018-11-25T06:19:04.574Z,926.81
2018-11-25T06:20:04.528Z,926.82
2018-11-25T06:21:04.485Z,926.83
2018-11-25T06:22:04.450Z,926.82
2018-11-25T06:23:04.389Z,926.80
2018-11-25T06:24:04.344Z,926.81
2018-11-25T06:25:04.297Z,926.82
2018-11-25T06:26:04.251Z,926.86
2018-11-25T06:27:04.206Z,926.86
2018-11-25T06:28:04.163Z,926.91
2018-11-25T06:29:04.112Z,926.89
2018-11-25T06:30:04.066Z,926.91
2018-11-25T06:31:04.021Z,926.94
2018-11-25T06:32:03.974Z,926.92
2018-11-25T06:33:03.928Z,926.86
2018-11-25T06:34:03.882Z,926.92
2018-11-25T06:35:03.835Z,926.93
2018-11-25T06:36:03.789Z,926.90
2018-11-25T06:37:03.754Z,926.88
2018-11-25T06:38:03.697Z,926.90
2018-11-25T06:39:03.651Z,926.90
2018-11-25T06:40:03.606Z,926.90
2018-11-25T06:41:03.559Z,926.92
2018-11-25T06:42:03.512Z,926.95
2018-11-25T06:43:03.466Z,926.96
2018-11-25T06:44:03.422Z,926.96
2018-11-25T06:45:03.375Z,926.96
2018-11-25T06:46:03.328Z,926.96
2018-11-25T06:47:03.281Z,927.03
2018-11-25T06:48:03.244Z,927.05
2018-11-25T06:49:03.191Z,927.03
2018-11-25T06:50:03.146Z,927.03
2018-11-25T06:51:03.101Z,927.04
2018-11-25T06:52:03.053Z,927.02
2018-11-25T06:53:03.004Z,926.96
2018-11-25T06:54:02.958Z,926.96
2018-11-25T06:55:02.912Z,926.93
2018-11-25T06:56:02.866Z,926.99
2018-11-25T06:57:02.820Z,926.98
2018-11-25T06:58:02.774Z,927.02
2018-11-25T06:59:02.728Z,927.00
2018-11-25T07:00:02.682Z,927.07
2018-11-25T07:01:02.635Z,927.05
2018-11-25T07:02:02.589Z,927.05
2018-11-25T07:03:02.542Z,927.06
2018-11-25T07:04:02.496Z,927.07
2018-11-25T07:05:02.451Z,927.07
2018-11-25T07:06:02.404Z,927.09
2018-11-25T07:07:02.357Z,927.06
2018-11-25T07:08:02.385Z,927.11
2018-11-25T07:09:02.279Z,927.12
2018-11-25T07:10:02.223Z,927.11
2018-11-25T07:11:02.177Z,927.13
2018-11-25T07:12:02.131Z,927.15
2018-11-25T07:13:02.080Z,927.15
2018-11-25T07:14:02.035Z,927.14
2018-11-25T07:15:01.989Z,927.15
2018-11-25T07:16:01.949Z,927.18
2018-11-25T07:17:01.896Z,927.17
2018-11-25T07:18:01.849Z,927.13
2018-11-25T07:19:01.809Z,927.17
2018-11-25T07:20:01.756Z,927.15
2018-11-25T07:21:01.711Z,927.18
2018-11-25T07:22:01.664Z,927.16
2018-11-25T07:23:01.623Z,927.12
2018-11-25T07:24:01.572Z,927.10
2018-11-25T07:25:01.529Z,927.12
2018-11-25T07:26:01.480Z,927.20
2018-11-25T07:27:01.436Z,927.16
2018-11-25T07:28:17.578Z,927.20
2018-11-25T07:29:01.341Z,927.16
2018-11-25T07:30:07.580Z,927.22
2018-11-25T07:31:01.249Z,927.24
2018-11-25T07:32:01.202Z,927.24
2018-11-25T07:33:01.156Z,927.26
2018-11-25T07:34:01.110Z,927.27
2018-11-25T07:35:01.063Z,927.24
2018-11-25T07:36:01.016Z,927.26
2018-11-25T07:37:00.970Z,927.29
2018-11-25T07:38:00.924Z,927.31
2018-11-25T07:39:00.877Z,927.34
2018-11-25T07:40:00.831Z,927.33
2018-11-25T07:41:00.785Z,927.38
2018-11-25T07:42:00.739Z,927.34
2018-11-25T07:43:00.693Z,927.37
2018-11-25T07:44:00.646Z,927.34
2018-11-25T07:45:00.599Z,927.32
2018-11-25T07:46:00.554Z,927.34
2018-11-25T07:47:00.506Z,927.33
2018-11-25T07:48:00.460Z,927.32
2018-11-25T07:49:00.417Z,927.32
2018-11-25T07:50:00.367Z,927.33
2018-11-25T07:51:00.321Z,927.33
2018-11-25T07:52:00.275Z,927.34
2018-11-25T07:53:00.233Z,927.37
2018-11-25T07:54:00.183Z,927.33
2018-11-25T07:55:00.136Z,927.36
2018-11-25T07:56:00.091Z,927.32
2018-11-25T07:57:00.043Z,927.37
2018-11-25T07:57:59.996Z,927.38
2018-11-25T07:58:59.951Z,927.39
2018-11-25T07:59:59.903Z,927.37
2018-11-25T08:00:59.857Z,927.40
2018-11-25T08:01:59.811Z,927.48
2018-11-25T08:02:59.771Z,927.42
2018-11-25T08:03:59.721Z,927.45
2018-11-25T08:04:59.674Z,927.53
2018-11-25T08:05:59.626Z,927.49
2018-11-25T08:06:59.578Z,927.47
2018-11-25T08:07:59.546Z,927.49
2018-11-25T08:08:59.486Z,927.56
2018-11-25T08:09:59.439Z,927.58
2018-11-25T08:10:59.392Z,927.56
2018-11-25T08:11:59.346Z,927.56
2018-11-25T08:12:59.304Z,927.55
2018-11-25T08:13:59.253Z,927.56
2018-11-25T08:14:59.210Z,927.59
2018-11-25T08:15:59.163Z,927.59
2018-11-25T08:16:59.115Z,927.60
2018-11-25T08:17:59.067Z,927.59
2018-11-25T08:18:59.020Z,927.56
2018-11-25T08:19:58.974Z,927.60
2018-11-25T08:20:58.928Z,927.59
2018-11-25T08:21:58.881Z,927.64
2018-11-25T08:22:58.835Z,927.63
2018-11-25T08:23:58.788Z,927.62
2018-11-25T08:24:58.744Z,927.62
2018-11-25T08:25:58.695Z,927.63
2018-11-25T08:26:58.649Z,927.61
2018-11-25T08:27:58.605Z,927.64
2018-11-25T08:28:58.556Z,927.67
2018-11-25T08:29:58.509Z,927.68
2018-11-25T08:30:58.466Z,927.69
2018-11-25T08:31:58.416Z,927.67
2018-11-25T08:34:12.059Z,927.72
2018-11-25T08:35:12.098Z,927.73
2018-11-25T08:36:12.050Z,927.72
2018-11-25T08:37:12.005Z,927.70
2018-11-25T08:38:11.960Z,927.76
2018-11-25T08:39:11.912Z,927.73
2018-11-25T08:40:11.862Z,927.74
2018-11-25T08:41:11.816Z,927.75
2018-11-25T08:42:11.769Z,927.76
2018-11-25T08:43:11.723Z,927.80
2018-11-25T08:44:11.679Z,927.81
2018-11-25T08:45:11.630Z,927.80
2018-11-25T08:46:11.583Z,927.81
2018-11-25T08:47:11.536Z,927.83
2018-11-25T08:48:11.492Z,927.90
2018-11-25T08:49:11.443Z,927.89
2018-11-25T08:50:11.396Z,927.92
2018-11-25T08:51:11.350Z,927.94
2018-11-25T08:52:11.353Z,927.95
2018-11-25T08:53:11.256Z,927.95
2018-11-25T08:54:11.212Z,927.92
2018-11-25T08:55:11.163Z,927.95
2018-11-25T08:56:11.116Z,927.99
2018-11-25T08:57:11.070Z,928.01
2018-11-25T08:58:11.023Z,928.00
2018-11-25T08:59:10.977Z,928.02
2018-11-25T09:00:10.931Z,928.07
2018-11-25T09:01:10.891Z,928.06
2018-11-25T09:02:10.843Z,928.08
2018-11-25T09:03:10.791Z,928.11
2018-11-25T09:04:10.745Z,928.09
2018-11-25T09:05:10.698Z,928.11
2018-11-25T09:06:10.654Z,928.15
2018-11-25T09:07:10.607Z,928.10
2018-11-25T09:08:10.559Z,928.19
2018-11-25T09:09:10.513Z,928.16
2018-11-25T09:10:10.466Z,928.17
2018-11-25T09:11:10.421Z,928.17
2018-11-25T09:12:10.375Z,928.17
2018-11-25T09:13:10.328Z,928.20
2018-11-25T09:14:10.281Z,928.22
2018-11-25T09:15:10.236Z,928.20
2018-11-25T09:16:10.188Z,928.24
2018-11-25T09:17:10.143Z,928.20
2018-11-25T09:18:10.096Z,928.26
2018-11-25T09:19:10.050Z,928.27
2018-11-25T09:20:10.006Z,928.31
2018-11-25T09:21:09.961Z,928.32
2018-11-25T09:22:09.918Z,928.32
2018-11-25T09:23:09.865Z,928.29
2018-11-25T09:24:09.780Z,928.35
2018-11-25T09:25:09.774Z,928.35
2018-11-25T09:26:09.726Z,928.36
2018-11-25T09:27:09.685Z,928.39
2018-11-25T09:28:09.639Z,928.40
2018-11-25T09:29:09.587Z,928.41
2018-11-25T09:30:09.541Z,928.40
2018-11-25T09:31:09.495Z,928.40
2018-11-25T09:32:09.448Z,928.41
2018-11-25T09:33:09.403Z,928.36
2018-11-25T09:34:09.356Z,928.46
2018-11-25T09:35:09.311Z,928.43
2018-11-25T09:36:09.263Z,928.47
2018-11-25T09:37:09.216Z,928.50
2018-11-25T09:38:09.171Z,928.52
2018-11-25T09:39:09.124Z,928.55
2018-11-25T09:40:09.128Z,928.57
2018-11-25T09:41:09.033Z,928.61
2018-11-25T09:42:08.985Z,928.66
2018-11-25T09:43:08.939Z,928.62
2018-11-25T09:44:08.894Z,928.66
2018-11-25T09:45:08.847Z,928.70
2018-11-25T09:46:08.815Z,928.66
2018-11-25T09:47:08.754Z,928.71
2018-11-25T09:48:08.708Z,928.73
2018-11-25T09:49:08.665Z,928.73
2018-11-25T09:50:08.615Z,928.74
2018-11-25T09:51:08.569Z,928.70
2018-11-25T09:52:08.523Z,928.73
2018-11-25T09:53:08.477Z,928.74
2018-11-25T09:54:08.430Z,928.75
2018-11-25T09:55:08.384Z,928.74
2018-11-25T09:56:08.338Z,928.77
2018-11-25T09:57:08.291Z,928.74
2018-11-25T09:58:08.245Z,928.79
2018-11-25T09:59:08.199Z,928.82
2018-11-25T10:00:08.152Z,928.81
2018-11-25T10:01:08.106Z,928.84
2018-11-25T10:02:08.060Z,928.85
2018-11-25T10:03:08.013Z,928.90
2018-11-25T10:04:07.968Z,928.91
2018-11-25T10:05:07.921Z,928.88
2018-11-25T10:06:07.875Z,928.90
2018-11-25T10:07:07.828Z,928.93
2018-11-25T10:08:07.782Z,928.94
2018-11-25T10:09:07.735Z,928.96
2018-11-25T10:10:07.689Z,928.98
2018-11-25T10:11:07.663Z,928.96
2018-11-25T10:12:07.597Z,929.03
2018-11-25T10:13:07.551Z,929.04
2018-11-25T10:14:07.505Z,929.01
2018-11-25T10:15:07.458Z,929.04
2018-11-25T10:16:07.414Z,929.09
2018-11-25T10:17:07.367Z,929.01
2018-11-25T10:18:07.319Z,929.08
2018-11-25T10:19:07.275Z,929.06
2018-11-25T10:20:07.228Z,929.10
2018-11-25T10:21:07.181Z,929.14
2018-11-25T10:22:07.135Z,929.15
2018-11-25T10:23:07.092Z,929.16
2018-11-25T10:24:07.043Z,929.15
2018-11-25T10:25:06.997Z,929.20
2018-11-25T10:26:06.951Z,929.22
2018-11-25T10:27:06.904Z,929.22
2018-11-25T10:28:06.858Z,929.16
2018-11-25T10:29:06.820Z,929.25
2018-11-25T10:30:06.766Z,929.24
2018-11-25T10:31:06.721Z,929.23
2018-11-25T10:32:06.675Z,929.30
2018-11-25T10:33:06.631Z,929.26
2018-11-25T10:34:06.582Z,929.34
2018-11-25T10:35:06.536Z,929.34
2018-11-25T10:36:06.490Z,929.34
2018-11-25T10:37:06.448Z,929.36
2018-11-25T10:38:06.398Z,929.37
2018-11-25T10:39:06.352Z,929.38
2018-11-25T10:40:06.306Z,929.37
2018-11-25T10:41:06.260Z,929.40
2018-11-25T10:42:06.214Z,929.42
2018-11-25T10:43:06.167Z,929.36
2018-11-25T10:44:06.125Z,929.42
2018-11-25T10:45:06.076Z,929.40
2018-11-25T10:46:06.030Z,929.39
2018-11-25T10:47:05.984Z,929.39
2018-11-25T10:48:05.940Z,929.44
2018-11-25T10:49:05.894Z,929.45
2018-11-25T10:50:05.847Z,929.41
2018-11-25T10:51:05.804Z,929.40
2018-11-25T10:52:05.754Z,929.40
2018-11-25T10:53:05.716Z,929.39
2018-11-25T10:54:05.662Z,929.42
2018-11-25T10:55:05.623Z,929.44
2018-11-25T10:56:05.570Z,929.35
2018-11-25T10:57:05.526Z,929.33
2018-11-25T10:58:05.479Z,929.39
2018-11-25T10:59:05.433Z,929.41
2018-11-25T11:00:05.387Z,929.42
2018-11-25T11:01:05.342Z,929.45
2018-11-25T11:02:05.295Z,929.47
2018-11-25T11:03:05.249Z,929.46
2018-11-25T11:04:05.203Z,929.46
2018-11-25T11:05:05.158Z,929.46
2018-11-25T11:06:05.112Z,929.48
2018-11-25T11:07:05.067Z,929.52
2018-11-25T11:08:05.020Z,929.47
2018-11-25T11:09:04.975Z,929.45
2018-11-25T11:10:04.929Z,929.48
2018-11-25T11:11:04.884Z,929.42
2018-11-25T11:12:04.841Z,929.51
2018-11-25T11:13:04.793Z,929.47
2018-11-25T11:14:04.746Z,929.49
2018-11-25T11:15:04.701Z,929.51
2018-11-25T11:16:04.655Z,929.48
2018-11-25T11:17:04.609Z,929.52
2018-11-25T11:18:04.565Z,929.49
2018-11-25T11:19:04.518Z,929.52
2018-11-25T11:20:04.474Z,929.55
2018-11-25T11:21:04.430Z,929.53
2018-11-25T11:22:04.382Z,929.53
2018-11-25T11:23:04.338Z,929.54
2018-11-25T11:24:04.290Z,929.52
2018-11-25T11:25:04.246Z,929.52
2018-11-25T11:26:06.964Z,929.57
2018-11-25T11:27:04.155Z,929.56
2018-11-25T11:28:04.118Z,929.60
2018-11-25T11:29:04.063Z,929.59
2018-11-25T11:30:04.018Z,929.63
2018-11-25T11:31:03.973Z,929.63
2018-11-25T11:32:03.928Z,929.65
2018-11-25T11:33:03.881Z,929.63
2018-11-25T11:34:03.836Z,929.68
2018-11-25T11:35:03.790Z,929.70
2018-11-25T11:36:03.745Z,929.69
2018-11-25T11:37:03.699Z,929.70
2018-11-25T11:38:03.654Z,929.78
2018-11-25T11:39:03.610Z,929.74
2018-11-25T11:40:03.564Z,929.74
2018-11-25T11:41:03.518Z,929.78
2018-11-25T11:42:03.473Z,929.74
2018-11-25T11:43:03.428Z,929.78
2018-11-25T11:44:03.382Z,929.75
2018-11-25T11:45:03.337Z,929.77
2018-11-25T11:46:03.292Z,929.75
2018-11-25T11:47:03.246Z,929.76
2018-11-25T11:48:03.201Z,929.79
2018-11-25T11:49:03.158Z,929.76
2018-11-25T11:50:03.111Z,929.78
2018-11-25T11:51:03.067Z,929.80
2018-11-25T11:52:03.021Z,929.84
2018-11-25T11:53:02.975Z,929.83
2018-11-25T11:54:02.931Z,929.86
2018-11-25T11:55:02.885Z,929.88
2018-11-25T11:56:02.841Z,929.86
2018-11-25T11:57:02.796Z,929.89
2018-11-25T11:58:02.750Z,929.89
2018-11-25T11:59:02.706Z,929.89
2018-11-25T12:00:02.661Z,929.92
2018-11-25T12:01:02.616Z,929.92
2018-11-25T12:02:02.574Z,929.91
2018-11-25T12:03:02.526Z,929.93
2018-11-25T12:04:02.482Z,929.92
2018-11-25T12:05:02.438Z,929.91
2018-11-25T12:06:02.393Z,929.93
2018-11-25T12:07:02.347Z,929.94
2018-11-25T12:08:02.310Z,929.94
2018-11-25T12:09:02.258Z,929.94
2018-11-25T12:10:02.213Z,929.94
2018-11-25T12:11:02.168Z,929.91
2018-11-25T12:12:02.126Z,929.93
2018-11-25T12:13:02.079Z,929.93
2018-11-25T12:14:02.034Z,929.97
2018-11-25T12:15:01.991Z,929.99
2018-11-25T12:16:01.944Z,930.03
2018-11-25T12:17:01.900Z,929.99
2018-11-25T12:18:02.740Z,929.99
2018-11-25T12:19:01.812Z,930.04
2018-11-25T12:20:01.765Z,930.04
2018-11-25T12:21:01.721Z,930.08
2018-11-25T12:22:01.676Z,930.06
2018-11-25T12:23:01.633Z,930.07
2018-11-25T12:24:01.587Z,930.09
2018-11-25T12:25:01.543Z,930.07
2018-11-25T12:26:01.500Z,930.10
2018-11-25T12:27:01.452Z,930.10
2018-11-25T12:28:01.409Z,930.08
2018-11-25T12:29:01.370Z,930.12